sensor_id;sensor_type;location;lat;lon;timestamp;P1;durP1;ratioP1;P2;durP2;ratioP2
20794;SDS011;28087;-33.874;151.240;2023-06-10T00:01:21;7.93;;;2.65;;
20794;SDS011;28087;-33.874;151.240;2023-06-10T00:03:58;6.85;;;2.67;;
20794;SDS011;28087;-33.874;151.240;2023-06-10T00:06:33;8.38;;;3.13;;
20794;SDS011;28087;-33.874;151.240;2023-06-10T00:09:10;9.23;;;3.20;;
20794;SDS011;28087;-33.874;151.240;2023-06-10T00:11:45;7.75;;;3.00;;
20794;SDS011;28087;-33.874;151.240;2023-06-10T00:14:21;7.95;;;2.92;;
20794;SDS011;28087;-33.874;151.240;2023-06-10T00:16:55;7.68;;;2.90;;
20794;SDS011;28087;-33.874;151.240;2023-06-10T00:19:32;8.43;;;3.28;;
20794;SDS011;28087;-33.874;151.240;2023-06-10T00:22:07;6.95;;;2.90;;
20794;SDS011;28087;-33.874;151.240;2023-06-10T00:24:43;9.77;;;3.10;;
20794;SDS011;28087;-33.874;151.240;2023-06-10T00:27:18;6.75;;;3.08;;
20794;SDS011;28087;-33.874;151.240;2023-06-10T00:29:53;7.05;;;3.00;;
20794;SDS011;28087;-33.874;151.240;2023-06-10T00:32:29;9.50;;;3.50;;
20794;SDS011;28087;-33.874;151.240;2023-06-10T00:35:06;7.35;;;3.05;;
20794;SDS011;28087;-33.874;151.240;2023-06-10T00:37:41;10.63;;;3.20;;
20794;SDS011;28087;-33.874;151.240;2023-06-10T00:40:16;9.55;;;3.20;;
20794;SDS011;28087;-33.874;151.240;2023-06-10T00:42:53;6.60;;;2.80;;
20794;SDS011;28087;-33.874;151.240;2023-06-10T00:45:28;6.03;;;2.50;;
20794;SDS011;28087;-33.874;151.240;2023-06-10T00:48:02;6.85;;;2.75;;
20794;SDS011;28087;-33.874;151.240;2023-06-10T00:50:40;9.35;;;2.80;;
20794;SDS011;28087;-33.874;151.240;2023-06-10T00:53:15;8.40;;;2.90;;
20794;SDS011;28087;-33.874;151.240;2023-06-10T00:55:50;7.32;;;2.60;;
20794;SDS011;28087;-33.874;151.240;2023-06-10T00:58:24;4.90;;;2.00;;
20794;SDS011;28087;-33.874;151.240;2023-06-10T01:00:59;6.18;;;2.55;;
20794;SDS011;28087;-33.874;151.240;2023-06-10T01:03:35;8.48;;;4.03;;
20794;SDS011;28087;-33.874;151.240;2023-06-10T01:06:13;9.70;;;2.70;;
20794;SDS011;28087;-33.874;151.240;2023-06-10T01:08:52;6.25;;;2.35;;
20794;SDS011;28087;-33.874;151.240;2023-06-10T01:11:38;6.13;;;2.20;;
20794;SDS011;28087;-33.874;151.240;2023-06-10T01:14:16;6.45;;;2.00;;
20794;SDS011;28087;-33.874;151.240;2023-06-10T01:16:51;8.43;;;2.10;;
20794;SDS011;28087;-33.874;151.240;2023-06-10T01:19:27;6.70;;;2.10;;
20794;SDS011;28087;-33.874;151.240;2023-06-10T01:22:04;6.90;;;2.15;;
20794;SDS011;28087;-33.874;151.240;2023-06-10T01:24:39;9.45;;;2.15;;
20794;SDS011;28087;-33.874;151.240;2023-06-10T01:27:15;5.63;;;1.67;;
20794;SDS011;28087;-33.874;151.240;2023-06-10T01:29:51;6.22;;;1.48;;
20794;SDS011;28087;-33.874;151.240;2023-06-10T01:32:32;5.60;;;1.50;;
20794;SDS011;28087;-33.874;151.240;2023-06-10T01:35:08;4.82;;;1.38;;
20794;SDS011;28087;-33.874;151.240;2023-06-10T01:37:46;6.50;;;1.80;;
20794;SDS011;28087;-33.874;151.240;2023-06-10T01:40:23;3.40;;;1.20;;
20794;SDS011;28087;-33.874;151.240;2023-06-10T01:42:59;5.80;;;1.30;;
20794;SDS011;28087;-33.874;151.240;2023-06-10T01:45:35;4.38;;;1.38;;
20794;SDS011;28087;-33.874;151.240;2023-06-10T01:48:10;4.72;;;1.20;;
20794;SDS011;28087;-33.874;151.240;2023-06-10T01:50:44;6.60;;;1.30;;
20794;SDS011;28087;-33.874;151.240;2023-06-10T01:53:21;5.32;;;1.40;;
20794;SDS011;28087;-33.874;151.240;2023-06-10T01:55:56;6.65;;;1.50;;
20794;SDS011;28087;-33.874;151.240;2023-06-10T01:58:31;6.20;;;1.40;;
20794;SDS011;28087;-33.874;151.240;2023-06-10T02:01:05;4.45;;;1.20;;
20794;SDS011;28087;-33.874;151.240;2023-06-10T02:03:39;5.22;;;1.15;;
20794;SDS011;28087;-33.874;151.240;2023-06-10T02:06:15;4.55;;;1.15;;
20794;SDS011;28087;-33.874;151.240;2023-06-10T02:08:52;4.07;;;1.17;;
20794;SDS011;28087;-33.874;151.240;2023-06-10T02:11:28;5.07;;;1.23;;
20794;SDS011;28087;-33.874;151.240;2023-06-10T02:14:03;4.65;;;1.20;;
20794;SDS011;28087;-33.874;151.240;2023-06-10T02:16:38;4.45;;;1.27;;
20794;SDS011;28087;-33.874;151.240;2023-06-10T02:19:17;5.20;;;1.17;;
20794;SDS011;28087;-33.874;151.240;2023-06-10T02:21:52;4.15;;;1.20;;
20794;SDS011;28087;-33.874;151.240;2023-06-10T02:24:28;3.90;;;1.10;;
20794;SDS011;28087;-33.874;151.240;2023-06-10T02:27:04;4.05;;;1.20;;
20794;SDS011;28087;-33.874;151.240;2023-06-10T02:29:40;4.70;;;1.05;;
20794;SDS011;28087;-33.874;151.240;2023-06-10T02:32:15;4.00;;;1.10;;
20794;SDS011;28087;-33.874;151.240;2023-06-10T02:34:53;3.92;;;1.02;;
20794;SDS011;28087;-33.874;151.240;2023-06-10T02:37:29;5.18;;;1.15;;
20794;SDS011;28087;-33.874;151.240;2023-06-10T02:40:07;3.08;;;1.05;;
20794;SDS011;28087;-33.874;151.240;2023-06-10T02:42:42;4.28;;;1.00;;
20794;SDS011;28087;-33.874;151.240;2023-06-10T02:45:18;4.28;;;1.20;;
20794;SDS011;28087;-33.874;151.240;2023-06-10T02:47:54;3.85;;;1.15;;
20794;SDS011;28087;-33.874;151.240;2023-06-10T02:50:30;3.30;;;0.90;;
20794;SDS011;28087;-33.874;151.240;2023-06-10T02:53:20;2.53;;;0.80;;
20794;SDS011;28087;-33.874;151.240;2023-06-10T02:56:05;8.15;;;1.02;;
20794;SDS011;28087;-33.874;151.240;2023-06-10T02:58:41;4.10;;;0.90;;
20794;SDS011;28087;-33.874;151.240;2023-06-10T03:01:17;4.32;;;1.08;;
20794;SDS011;28087;-33.874;151.240;2023-06-10T03:04:06;3.55;;;0.80;;
20794;SDS011;28087;-33.874;151.240;2023-06-10T03:06:43;2.97;;;0.80;;
20794;SDS011;28087;-33.874;151.240;2023-06-10T03:09:25;3.45;;;0.90;;
20794;SDS011;28087;-33.874;151.240;2023-06-10T03:12:04;4.10;;;1.10;;
20794;SDS011;28087;-33.874;151.240;2023-06-10T03:14:43;4.57;;;1.05;;
20794;SDS011;28087;-33.874;151.240;2023-06-10T03:17:19;3.30;;;1.00;;
20794;SDS011;28087;-33.874;151.240;2023-06-10T03:19:54;3.60;;;0.95;;
20794;SDS011;28087;-33.874;151.240;2023-06-10T03:22:29;4.25;;;0.98;;
20794;SDS011;28087;-33.874;151.240;2023-06-10T03:25:07;4.15;;;1.40;;
20794;SDS011;28087;-33.874;151.240;2023-06-10T03:27:51;3.63;;;1.10;;
20794;SDS011;28087;-33.874;151.240;2023-06-10T03:30:26;3.45;;;1.30;;
20794;SDS011;28087;-33.874;151.240;2023-06-10T03:33:01;4.47;;;1.55;;
20794;SDS011;28087;-33.874;151.240;2023-06-10T03:35:36;4.03;;;1.58;;
20794;SDS011;28087;-33.874;151.240;2023-06-10T03:38:11;6.53;;;3.78;;
20794;SDS011;28087;-33.874;151.240;2023-06-10T03:40:47;3.38;;;1.48;;
20794;SDS011;28087;-33.874;151.240;2023-06-10T03:43:24;3.75;;;1.10;;
20794;SDS011;28087;-33.874;151.240;2023-06-10T03:45:58;2.78;;;0.93;;
20794;SDS011;28087;-33.874;151.240;2023-06-10T03:48:34;3.80;;;1.13;;
20794;SDS011;28087;-33.874;151.240;2023-06-10T03:51:09;3.47;;;1.05;;
20794;SDS011;28087;-33.874;151.240;2023-06-10T03:53:44;3.83;;;1.20;;
20794;SDS011;28087;-33.874;151.240;2023-06-10T03:56:19;3.40;;;0.98;;
20794;SDS011;28087;-33.874;151.240;2023-06-10T03:58:56;5.05;;;1.10;;
20794;SDS011;28087;-33.874;151.240;2023-06-10T04:01:31;3.28;;;0.95;;
20794;SDS011;28087;-33.874;151.240;2023-06-10T04:04:08;3.90;;;1.20;;
20794;SDS011;28087;-33.874;151.240;2023-06-10T04:06:43;6.25;;;1.23;;
20794;SDS011;28087;-33.874;151.240;2023-06-10T04:09:17;3.85;;;1.00;;
20794;SDS011;28087;-33.874;151.240;2023-06-10T04:11:53;3.83;;;0.93;;
20794;SDS011;28087;-33.874;151.240;2023-06-10T04:14:29;3.28;;;0.80;;
20794;SDS011;28087;-33.874;151.240;2023-06-10T04:17:05;5.13;;;1.15;;
20794;SDS011;28087;-33.874;151.240;2023-06-10T04:19:40;4.65;;;1.30;;
20794;SDS011;28087;-33.874;151.240;2023-06-10T04:22:15;3.95;;;0.95;;
20794;SDS011;28087;-33.874;151.240;2023-06-10T04:24:51;3.65;;;1.00;;
20794;SDS011;28087;-33.874;151.240;2023-06-10T04:27:25;4.57;;;1.20;;
20794;SDS011;28087;-33.874;151.240;2023-06-10T04:30:03;5.45;;;1.10;;
20794;SDS011;28087;-33.874;151.240;2023-06-10T04:32:39;3.75;;;1.10;;
20794;SDS011;28087;-33.874;151.240;2023-06-10T04:35:16;4.20;;;1.00;;
20794;SDS011;28087;-33.874;151.240;2023-06-10T04:37:51;4.65;;;1.20;;
20794;SDS011;28087;-33.874;151.240;2023-06-10T04:40:26;3.90;;;1.20;;
20794;SDS011;28087;-33.874;151.240;2023-06-10T04:43:03;6.15;;;1.10;;
20794;SDS011;28087;-33.874;151.240;2023-06-10T04:45:41;7.53;;;1.30;;
20794;SDS011;28087;-33.874;151.240;2023-06-10T04:48:20;4.90;;;1.15;;
20794;SDS011;28087;-33.874;151.240;2023-06-10T04:50:58;5.68;;;1.05;;
20794;SDS011;28087;-33.874;151.240;2023-06-10T04:53:34;5.00;;;1.08;;
20794;SDS011;28087;-33.874;151.240;2023-06-10T04:56:09;5.05;;;1.23;;
20794;SDS011;28087;-33.874;151.240;2023-06-10T04:58:43;5.50;;;1.10;;
20794;SDS011;28087;-33.874;151.240;2023-06-10T05:01:20;5.93;;;1.20;;
20794;SDS011;28087;-33.874;151.240;2023-06-10T05:03:55;4.10;;;1.20;;
20794;SDS011;28087;-33.874;151.240;2023-06-10T05:06:30;4.03;;;1.20;;
20794;SDS011;28087;-33.874;151.240;2023-06-10T05:09:04;4.20;;;1.20;;
20794;SDS011;28087;-33.874;151.240;2023-06-10T05:11:46;3.53;;;1.00;;
20794;SDS011;28087;-33.874;151.240;2023-06-10T05:14:29;3.90;;;1.00;;
20794;SDS011;28087;-33.874;151.240;2023-06-10T05:17:10;5.78;;;1.17;;
20794;SDS011;28087;-33.874;151.240;2023-06-10T05:19:45;5.07;;;1.15;;
20794;SDS011;28087;-33.874;151.240;2023-06-10T05:22:21;5.22;;;1.52;;
20794;SDS011;28087;-33.874;151.240;2023-06-10T05:25:01;4.43;;;1.30;;
20794;SDS011;28087;-33.874;151.240;2023-06-10T05:27:40;3.40;;;1.00;;
20794;SDS011;28087;-33.874;151.240;2023-06-10T05:30:28;3.65;;;1.08;;
20794;SDS011;28087;-33.874;151.240;2023-06-10T05:33:07;4.63;;;1.10;;
20794;SDS011;28087;-33.874;151.240;2023-06-10T05:35:50;6.43;;;1.50;;
20794;SDS011;28087;-33.874;151.240;2023-06-10T05:38:34;6.32;;;1.30;;
20794;SDS011;28087;-33.874;151.240;2023-06-10T05:41:11;5.88;;;1.13;;
20794;SDS011;28087;-33.874;151.240;2023-06-10T05:44:02;4.35;;;1.10;;
20794;SDS011;28087;-33.874;151.240;2023-06-10T05:46:50;4.90;;;1.20;;
20794;SDS011;28087;-33.874;151.240;2023-06-10T05:49:32;3.58;;;0.93;;
20794;SDS011;28087;-33.874;151.240;2023-06-10T05:52:13;7.40;;;1.52;;
20794;SDS011;28087;-33.874;151.240;2023-06-10T05:54:58;3.60;;;1.10;;
20794;SDS011;28087;-33.874;151.240;2023-06-10T05:57:41;4.15;;;1.00;;
20794;SDS011;28087;-33.874;151.240;2023-06-10T06:00:20;3.45;;;1.20;;
20794;SDS011;28087;-33.874;151.240;2023-06-10T06:02:59;4.82;;;1.20;;
20794;SDS011;28087;-33.874;151.240;2023-06-10T06:05:40;4.78;;;1.02;;
20794;SDS011;28087;-33.874;151.240;2023-06-10T06:08:20;3.15;;;1.05;;
20794;SDS011;28087;-33.874;151.240;2023-06-10T06:11:14;4.57;;;1.00;;
20794;SDS011;28087;-33.874;151.240;2023-06-10T06:13:51;5.53;;;1.13;;
20794;SDS011;28087;-33.874;151.240;2023-06-10T06:16:26;4.53;;;1.00;;
20794;SDS011;28087;-33.874;151.240;2023-06-10T06:19:07;4.75;;;0.90;;
20794;SDS011;28087;-33.874;151.240;2023-06-10T06:21:50;5.20;;;1.02;;
20794;SDS011;28087;-33.874;151.240;2023-06-10T06:24:30;5.60;;;0.90;;
20794;SDS011;28087;-33.874;151.240;2023-06-10T06:27:13;3.08;;;0.80;;
20794;SDS011;28087;-33.874;151.240;2023-06-10T06:29:54;4.32;;;1.00;;
20794;SDS011;28087;-33.874;151.240;2023-06-10T06:32:30;3.75;;;1.00;;
20794;SDS011;28087;-33.874;151.240;2023-06-10T06:35:30;3.63;;;1.00;;
20794;SDS011;28087;-33.874;151.240;2023-06-10T06:38:20;5.13;;;1.10;;
20794;SDS011;28087;-33.874;151.240;2023-06-10T06:41:00;4.68;;;1.10;;
20794;SDS011;28087;-33.874;151.240;2023-06-10T06:43:38;3.90;;;1.00;;
20794;SDS011;28087;-33.874;151.240;2023-06-10T06:46:31;3.17;;;0.90;;
20794;SDS011;28087;-33.874;151.240;2023-06-10T06:49:09;4.70;;;1.00;;
20794;SDS011;28087;-33.874;151.240;2023-06-10T06:51:50;3.85;;;1.00;;
20794;SDS011;28087;-33.874;151.240;2023-06-10T06:54:27;2.90;;;0.98;;
20794;SDS011;28087;-33.874;151.240;2023-06-10T06:57:03;4.80;;;1.13;;
20794;SDS011;28087;-33.874;151.240;2023-06-10T06:59:49;5.97;;;0.90;;
20794;SDS011;28087;-33.874;151.240;2023-06-10T07:02:30;3.47;;;1.00;;
20794;SDS011;28087;-33.874;151.240;2023-06-10T07:05:33;5.32;;;1.08;;
20794;SDS011;28087;-33.874;151.240;2023-06-10T07:08:10;3.72;;;1.20;;
20794;SDS011;28087;-33.874;151.240;2023-06-10T07:11:04;2.95;;;0.98;;
20794;SDS011;28087;-33.874;151.240;2023-06-10T07:13:43;5.10;;;1.17;;
20794;SDS011;28087;-33.874;151.240;2023-06-10T07:16:17;5.80;;;1.10;;
20794;SDS011;28087;-33.874;151.240;2023-06-10T07:18:52;6.65;;;1.30;;
20794;SDS011;28087;-33.874;151.240;2023-06-10T07:21:27;4.22;;;1.30;;
20794;SDS011;28087;-33.874;151.240;2023-06-10T07:24:03;5.25;;;1.52;;
20794;SDS011;28087;-33.874;151.240;2023-06-10T07:26:40;4.75;;;1.50;;
20794;SDS011;28087;-33.874;151.240;2023-06-10T07:29:15;5.60;;;1.80;;
20794;SDS011;28087;-33.874;151.240;2023-06-10T07:31:49;6.13;;;1.70;;
20794;SDS011;28087;-33.874;151.240;2023-06-10T07:34:25;7.07;;;1.70;;
20794;SDS011;28087;-33.874;151.240;2023-06-10T07:36:59;4.43;;;1.60;;
20794;SDS011;28087;-33.874;151.240;2023-06-10T07:39:33;5.93;;;1.55;;
20794;SDS011;28087;-33.874;151.240;2023-06-10T07:42:10;4.07;;;1.27;;
20794;SDS011;28087;-33.874;151.240;2023-06-10T07:44:46;5.55;;;1.40;;
20794;SDS011;28087;-33.874;151.240;2023-06-10T07:47:20;4.70;;;1.40;;
20794;SDS011;28087;-33.874;151.240;2023-06-10T07:49:55;6.38;;;1.67;;
20794;SDS011;28087;-33.874;151.240;2023-06-10T07:52:29;7.10;;;1.40;;
20794;SDS011;28087;-33.874;151.240;2023-06-10T07:55:06;3.78;;;1.10;;
20794;SDS011;28087;-33.874;151.240;2023-06-10T07:57:43;7.10;;;1.52;;
20794;SDS011;28087;-33.874;151.240;2023-06-10T08:00:17;5.22;;;1.30;;
20794;SDS011;28087;-33.874;151.240;2023-06-10T08:02:52;5.65;;;1.90;;
20794;SDS011;28087;-33.874;151.240;2023-06-10T08:05:28;7.30;;;2.20;;
20794;SDS011;28087;-33.874;151.240;2023-06-10T08:08:02;7.65;;;2.05;;
20794;SDS011;28087;-33.874;151.240;2023-06-10T08:10:37;5.95;;;2.10;;
20794;SDS011;28087;-33.874;151.240;2023-06-10T08:13:13;7.07;;;2.00;;
20794;SDS011;28087;-33.874;151.240;2023-06-10T08:15:49;5.32;;;2.00;;
20794;SDS011;28087;-33.874;151.240;2023-06-10T08:18:25;6.72;;;1.95;;
20794;SDS011;28087;-33.874;151.240;2023-06-10T08:21:00;5.68;;;2.00;;
20794;SDS011;28087;-33.874;151.240;2023-06-10T08:23:34;4.82;;;1.90;;
20794;SDS011;28087;-33.874;151.240;2023-06-10T08:26:10;5.75;;;1.80;;
20794;SDS011;28087;-33.874;151.240;2023-06-10T08:28:50;5.20;;;1.80;;
20794;SDS011;28087;-33.874;151.240;2023-06-10T08:31:25;6.15;;;1.60;;
20794;SDS011;28087;-33.874;151.240;2023-06-10T08:34:00;6.38;;;1.88;;
20794;SDS011;28087;-33.874;151.240;2023-06-10T08:36:35;5.60;;;1.85;;
20794;SDS011;28087;-33.874;151.240;2023-06-10T08:39:09;6.07;;;1.70;;
20794;SDS011;28087;-33.874;151.240;2023-06-10T08:41:44;6.55;;;1.90;;
20794;SDS011;28087;-33.874;151.240;2023-06-10T08:44:25;7.22;;;2.08;;
20794;SDS011;28087;-33.874;151.240;2023-06-10T08:47:03;6.93;;;1.88;;
20794;SDS011;28087;-33.874;151.240;2023-06-10T08:49:41;7.07;;;2.53;;
20794;SDS011;28087;-33.874;151.240;2023-06-10T08:52:20;5.28;;;2.22;;
20794;SDS011;28087;-33.874;151.240;2023-06-10T08:54:57;5.05;;;2.00;;
20794;SDS011;28087;-33.874;151.240;2023-06-10T08:57:35;4.38;;;1.70;;
20794;SDS011;28087;-33.874;151.240;2023-06-10T09:00:53;6.57;;;2.55;;
20794;SDS011;28087;-33.874;151.240;2023-06-10T09:03:33;6.22;;;2.50;;
20794;SDS011;28087;-33.874;151.240;2023-06-10T09:06:10;5.70;;;2.30;;
20794;SDS011;28087;-33.874;151.240;2023-06-10T09:08:47;6.30;;;3.08;;
20794;SDS011;28087;-33.874;151.240;2023-06-10T09:11:23;8.00;;;3.78;;
20794;SDS011;28087;-33.874;151.240;2023-06-10T09:13:58;13.52;;;7.68;;
20794;SDS011;28087;-33.874;151.240;2023-06-10T09:16:35;15.25;;;9.70;;
20794;SDS011;28087;-33.874;151.240;2023-06-10T09:19:11;13.70;;;7.53;;
20794;SDS011;28087;-33.874;151.240;2023-06-10T09:21:45;10.32;;;3.40;;
20794;SDS011;28087;-33.874;151.240;2023-06-10T09:24:21;12.60;;;5.40;;
20794;SDS011;28087;-33.874;151.240;2023-06-10T09:27:02;11.68;;;5.97;;
20794;SDS011;28087;-33.874;151.240;2023-06-10T09:29:45;16.35;;;9.15;;
20794;SDS011;28087;-33.874;151.240;2023-06-10T09:32:23;17.25;;;9.63;;
20794;SDS011;28087;-33.874;151.240;2023-06-10T09:34:58;9.15;;;3.65;;
20794;SDS011;28087;-33.874;151.240;2023-06-10T09:37:32;7.55;;;2.30;;
20794;SDS011;28087;-33.874;151.240;2023-06-10T09:40:08;5.65;;;2.10;;
20794;SDS011;28087;-33.874;151.240;2023-06-10T09:42:43;6.95;;;1.92;;
20794;SDS011;28087;-33.874;151.240;2023-06-10T09:45:19;7.05;;;2.10;;
20794;SDS011;28087;-33.874;151.240;2023-06-10T09:47:56;6.93;;;1.88;;
20794;SDS011;28087;-33.874;151.240;2023-06-10T09:50:33;10.25;;;2.40;;
20794;SDS011;28087;-33.874;151.240;2023-06-10T09:53:08;6.90;;;2.20;;
20794;SDS011;28087;-33.874;151.240;2023-06-10T09:55:43;7.15;;;2.30;;
20794;SDS011;28087;-33.874;151.240;2023-06-10T09:58:18;7.03;;;2.30;;
20794;SDS011;28087;-33.874;151.240;2023-06-10T10:01:09;7.20;;;2.50;;
20794;SDS011;28087;-33.874;151.240;2023-06-10T10:03:46;6.22;;;2.30;;
20794;SDS011;28087;-33.874;151.240;2023-06-10T10:06:21;8.40;;;2.90;;
20794;SDS011;28087;-33.874;151.240;2023-06-10T10:08:56;7.80;;;2.30;;
20794;SDS011;28087;-33.874;151.240;2023-06-10T10:11:31;6.20;;;2.20;;
20794;SDS011;28087;-33.874;151.240;2023-06-10T10:14:07;6.88;;;2.83;;
20794;SDS011;28087;-33.874;151.240;2023-06-10T10:16:42;9.38;;;3.10;;
20794;SDS011;28087;-33.874;151.240;2023-06-10T10:19:20;11.93;;;3.28;;
20794;SDS011;28087;-33.874;151.240;2023-06-10T10:21:56;6.65;;;2.70;;
20794;SDS011;28087;-33.874;151.240;2023-06-10T10:24:34;9.02;;;3.30;;
20794;SDS011;28087;-33.874;151.240;2023-06-10T10:27:11;9.70;;;3.60;;
20794;SDS011;28087;-33.874;151.240;2023-06-10T10:29:48;9.20;;;3.85;;
20794;SDS011;28087;-33.874;151.240;2023-06-10T10:32:28;8.18;;;3.30;;
20794;SDS011;28087;-33.874;151.240;2023-06-10T10:35:07;10.43;;;3.50;;
20794;SDS011;28087;-33.874;151.240;2023-06-10T10:37:42;9.10;;;3.05;;
20794;SDS011;28087;-33.874;151.240;2023-06-10T10:40:18;8.02;;;2.90;;
20794;SDS011;28087;-33.874;151.240;2023-06-10T10:42:56;6.57;;;2.67;;
20794;SDS011;28087;-33.874;151.240;2023-06-10T10:45:35;6.90;;;2.80;;
20794;SDS011;28087;-33.874;151.240;2023-06-10T10:48:10;7.75;;;2.58;;
20794;SDS011;28087;-33.874;151.240;2023-06-10T10:50:52;6.95;;;2.30;;
20794;SDS011;28087;-33.874;151.240;2023-06-10T10:57:10;6.93;;;2.72;;
20794;SDS011;28087;-33.874;151.240;2023-06-10T11:00:01;7.35;;;2.53;;
20794;SDS011;28087;-33.874;151.240;2023-06-10T11:02:43;7.63;;;3.20;;
20794;SDS011;28087;-33.874;151.240;2023-06-10T11:11:28;10.63;;;4.43;;
20794;SDS011;28087;-33.874;151.240;2023-06-10T11:14:08;10.15;;;4.90;;
20794;SDS011;28087;-33.874;151.240;2023-06-10T11:16:49;10.73;;;4.95;;
20794;SDS011;28087;-33.874;151.240;2023-06-10T11:19:32;12.30;;;5.10;;
20794;SDS011;28087;-33.874;151.240;2023-06-10T11:22:09;12.07;;;5.28;;
20794;SDS011;28087;-33.874;151.240;2023-06-10T11:24:52;12.55;;;5.05;;
20794;SDS011;28087;-33.874;151.240;2023-06-10T11:27:37;11.55;;;5.60;;
20794;SDS011;28087;-33.874;151.240;2023-06-10T11:30:19;9.50;;;4.85;;
20794;SDS011;28087;-33.874;151.240;2023-06-10T11:33:06;13.95;;;6.13;;
20794;SDS011;28087;-33.874;151.240;2023-06-10T11:35:48;10.32;;;5.80;;
20794;SDS011;28087;-33.874;151.240;2023-06-10T11:38:25;11.40;;;6.30;;
20794;SDS011;28087;-33.874;151.240;2023-06-10T11:41:07;13.95;;;6.50;;
20794;SDS011;28087;-33.874;151.240;2023-06-10T11:43:56;16.25;;;7.05;;
20794;SDS011;28087;-33.874;151.240;2023-06-10T11:46:44;14.43;;;7.28;;
20794;SDS011;28087;-33.874;151.240;2023-06-10T11:49:26;12.75;;;7.50;;
20794;SDS011;28087;-33.874;151.240;2023-06-10T11:52:08;14.75;;;8.50;;
20794;SDS011;28087;-33.874;151.240;2023-06-10T11:55:00;14.68;;;7.97;;
20794;SDS011;28087;-33.874;151.240;2023-06-10T11:57:44;16.95;;;8.02;;
20794;SDS011;28087;-33.874;151.240;2023-06-10T12:00:34;13.57;;;7.60;;
20794;SDS011;28087;-33.874;151.240;2023-06-10T12:03:10;12.68;;;7.20;;
20794;SDS011;28087;-33.874;151.240;2023-06-10T12:05:58;13.77;;;6.65;;
20794;SDS011;28087;-33.874;151.240;2023-06-10T12:08:43;13.50;;;6.65;;
20794;SDS011;28087;-33.874;151.240;2023-06-10T12:11:31;12.88;;;6.38;;
20794;SDS011;28087;-33.874;151.240;2023-06-10T12:17:39;13.63;;;6.30;;
20794;SDS011;28087;-33.874;151.240;2023-06-10T12:20:26;11.80;;;6.30;;
20794;SDS011;28087;-33.874;151.240;2023-06-10T12:23:13;12.80;;;6.15;;
20794;SDS011;28087;-33.874;151.240;2023-06-10T12:25:53;13.43;;;6.40;;
20794;SDS011;28087;-33.874;151.240;2023-06-10T12:28:41;13.85;;;6.40;;
20794;SDS011;28087;-33.874;151.240;2023-06-10T12:31:55;13.27;;;6.05;;
20794;SDS011;28087;-33.874;151.240;2023-06-10T12:34:39;10.88;;;5.32;;
20794;SDS011;28087;-33.874;151.240;2023-06-10T12:37:26;12.38;;;5.30;;
20794;SDS011;28087;-33.874;151.240;2023-06-10T12:40:17;8.90;;;4.50;;
20794;SDS011;28087;-33.874;151.240;2023-06-10T12:43:01;12.88;;;4.95;;
20794;SDS011;28087;-33.874;151.240;2023-06-10T12:45:47;10.38;;;4.40;;
20794;SDS011;28087;-33.874;151.240;2023-06-10T12:48:23;9.10;;;4.30;;
20794;SDS011;28087;-33.874;151.240;2023-06-10T12:51:04;8.45;;;4.30;;
20794;SDS011;28087;-33.874;151.240;2023-06-10T12:53:43;7.63;;;4.05;;
20794;SDS011;28087;-33.874;151.240;2023-06-10T12:56:19;9.93;;;3.88;;
20794;SDS011;28087;-33.874;151.240;2023-06-10T12:58:55;7.25;;;3.72;;
20794;SDS011;28087;-33.874;151.240;2023-06-10T13:01:30;10.00;;;3.60;;
20794;SDS011;28087;-33.874;151.240;2023-06-10T13:04:07;7.13;;;3.47;;
20794;SDS011;28087;-33.874;151.240;2023-06-10T13:06:44;6.03;;;3.10;;
20794;SDS011;28087;-33.874;151.240;2023-06-10T13:09:19;8.98;;;3.10;;
20794;SDS011;28087;-33.874;151.240;2023-06-10T13:11:54;8.18;;;3.05;;
20794;SDS011;28087;-33.874;151.240;2023-06-10T13:14:31;6.75;;;3.03;;
20794;SDS011;28087;-33.874;151.240;2023-06-10T13:17:05;7.10;;;2.70;;
20794;SDS011;28087;-33.874;151.240;2023-06-10T13:19:40;6.75;;;2.45;;
20794;SDS011;28087;-33.874;151.240;2023-06-10T13:22:16;5.55;;;2.55;;
20794;SDS011;28087;-33.874;151.240;2023-06-10T13:24:52;8.75;;;2.30;;
20794;SDS011;28087;-33.874;151.240;2023-06-10T13:27:27;5.20;;;2.15;;
20794;SDS011;28087;-33.874;151.240;2023-06-10T13:30:02;5.85;;;2.33;;
20794;SDS011;28087;-33.874;151.240;2023-06-10T13:32:42;7.45;;;2.58;;
20794;SDS011;28087;-33.874;151.240;2023-06-10T13:35:17;5.88;;;2.55;;
20794;SDS011;28087;-33.874;151.240;2023-06-10T13:37:54;7.32;;;2.65;;
20794;SDS011;28087;-33.874;151.240;2023-06-10T13:40:28;7.07;;;2.55;;
20794;SDS011;28087;-33.874;151.240;2023-06-10T13:43:06;7.97;;;2.70;;
20794;SDS011;28087;-33.874;151.240;2023-06-10T13:45:55;8.60;;;2.95;;
20794;SDS011;28087;-33.874;151.240;2023-06-10T13:48:29;6.55;;;2.78;;
20794;SDS011;28087;-33.874;151.240;2023-06-10T13:51:04;7.18;;;2.90;;
20794;SDS011;28087;-33.874;151.240;2023-06-10T13:53:41;6.68;;;3.00;;
20794;SDS011;28087;-33.874;151.240;2023-06-10T13:56:17;7.72;;;2.80;;
20794;SDS011;28087;-33.874;151.240;2023-06-10T13:58:52;6.95;;;2.90;;
20794;SDS011;28087;-33.874;151.240;2023-06-10T14:01:29;7.13;;;2.88;;
20794;SDS011;28087;-33.874;151.240;2023-06-10T14:04:03;6.78;;;3.13;;
20794;SDS011;28087;-33.874;151.240;2023-06-10T14:06:39;7.72;;;3.25;;
20794;SDS011;28087;-33.874;151.240;2023-06-10T14:09:16;6.85;;;2.90;;
20794;SDS011;28087;-33.874;151.240;2023-06-10T14:11:50;6.95;;;3.05;;
20794;SDS011;28087;-33.874;151.240;2023-06-10T14:14:25;7.10;;;3.10;;
20794;SDS011;28087;-33.874;151.240;2023-06-10T14:17:01;7.65;;;2.78;;
20794;SDS011;28087;-33.874;151.240;2023-06-10T14:19:37;6.32;;;2.72;;
20794;SDS011;28087;-33.874;151.240;2023-06-10T14:22:11;6.25;;;2.70;;
20794;SDS011;28087;-33.874;151.240;2023-06-10T14:24:48;7.60;;;2.53;;
20794;SDS011;28087;-33.874;151.240;2023-06-10T14:27:23;6.82;;;2.90;;
20794;SDS011;28087;-33.874;151.240;2023-06-10T14:29:58;6.65;;;2.58;;
20794;SDS011;28087;-33.874;151.240;2023-06-10T14:32:33;7.75;;;2.83;;
20794;SDS011;28087;-33.874;151.240;2023-06-10T14:35:07;6.32;;;2.38;;
20794;SDS011;28087;-33.874;151.240;2023-06-10T14:37:43;8.07;;;2.75;;
20794;SDS011;28087;-33.874;151.240;2023-06-10T14:40:19;6.80;;;2.58;;
20794;SDS011;28087;-33.874;151.240;2023-06-10T14:42:55;6.70;;;2.55;;
20794;SDS011;28087;-33.874;151.240;2023-06-10T14:45:30;5.05;;;2.42;;
20794;SDS011;28087;-33.874;151.240;2023-06-10T14:48:06;8.38;;;2.53;;
20794;SDS011;28087;-33.874;151.240;2023-06-10T14:50:41;6.07;;;2.70;;
20794;SDS011;28087;-33.874;151.240;2023-06-10T14:53:17;8.75;;;2.50;;
20794;SDS011;28087;-33.874;151.240;2023-06-10T14:55:53;6.53;;;2.58;;
20794;SDS011;28087;-33.874;151.240;2023-06-10T14:58:29;6.90;;;2.40;;
20794;SDS011;28087;-33.874;151.240;2023-06-10T15:01:05;6.93;;;2.40;;
20794;SDS011;28087;-33.874;151.240;2023-06-10T15:03:39;7.15;;;2.50;;
20794;SDS011;28087;-33.874;151.240;2023-06-10T15:06:14;6.35;;;2.53;;
20794;SDS011;28087;-33.874;151.240;2023-06-10T15:08:52;8.52;;;2.80;;
20794;SDS011;28087;-33.874;151.240;2023-06-10T15:11:28;7.20;;;2.40;;
20794;SDS011;28087;-33.874;151.240;2023-06-10T15:14:03;6.13;;;2.30;;
20794;SDS011;28087;-33.874;151.240;2023-06-10T15:16:37;5.47;;;2.60;;
20794;SDS011;28087;-33.874;151.240;2023-06-10T15:19:13;7.60;;;2.72;;
20794;SDS011;28087;-33.874;151.240;2023-06-10T15:21:47;8.43;;;2.60;;